Time;durP1;ratioP1;P1;durP2;ratioP2;P2;SDS_P1;SDS_P2;PMS_P1;PMS_P2;Temp;Humidity;BMP_temperature;BMP_pressure;BME280_temperature;BME280_humidity;BME280_pressure;Samples;Min_cycle;Max_cycle;Signal;HPM_P1;HPM_P2
2022/06/15 00:02:12;;;;;;;;;;;;;;;;;;5090240;28;19915;-59
2022/06/15 00:04:47;;;;;;;;;;;;;;;;;;5109329;28;19975;-58
2022/06/15 00:07:13;;;;;;;;;;;;;;;;;;5108691;28;19908;-58
2022/06/15 00:09:44;;;;;;;;;;;;;;;;;;5107908;28;19923;-59
2022/06/15 00:12:16;;;;;;;;;;;;;;;;;;5108392;28;19916;-59
2022/06/15 00:17:28;;;;;;;;;;;;;;;;;;5107460;28;19916;-59
2022/06/15 00:19:56;;;;;;;;;;;;;;;;;;5108602;28;19908;-59
2022/06/15 00:27:59;;;;;;;;;;;;;;;;;;5057561;28;19930;-59
2022/06/15 00:33:21;;;;;;;;;;;;;;;;;;5007380;28;19960;-59
2022/06/15 00:38:38;;;;;;;;;;;;;;;;;;5081507;28;19915;-59
2022/06/15 00:41:09;;;;;;;;;;;;;;;;;;5109557;28;19915;-59
2022/06/15 00:43:47;;;;;;;;;;;;;;;;;;5067691;28;19987;-58
2022/06/15 00:46:28;;;;;;;;;;;;;;;;;;5049248;28;19909;-59
2022/06/15 00:49:00;;;;;;;;;;;;;;;;;;5067621;28;19931;-58
2022/06/15 00:51:26;;;;;;;;;;;;;;;;;;5067520;28;19944;-59
2022/06/15 00:54:14;;;;;;;;;;;;;;;;;;;;;
2022/06/15 00:59:35;;;;;;;;;;;;;;;;;;5036453;28;19928;-58
2022/06/15 01:02:10;;;;;;;;;;;;;;;;;;5066874;28;19912;-58
2022/06/15 01:04:55;;;;;;;;;;;;;;;;;;5067674;28;19921;-59
2022/06/15 01:07:33;;;;;;;;;;;;;;;;;;5067500;28;19913;-59
2022/06/15 01:10:02;;;;;;;;;;;;;;;;;;5027001;28;20427;-59
2022/06/15 01:12:41;;;;;;;;;;;;;;;;;;;;;
2022/06/15 01:15:16;;;;;;;;;;;;;;;;;;5028133;28;19948;-58
2022/06/15 01:20:52;;;;;;;;;;;;;;;;;;5024452;28;19910;-59
2022/06/15 01:23:26;;;;;;;;;;;;;;;;;;5028283;28;19910;-58
2022/06/15 01:28:56;;;;;;;;;;;;;;;;;;4976183;28;19911;-59
2022/06/15 01:31:28;;;;;;;;;;;;;;;;;;5027736;28;19948;-58
2022/06/15 01:34:01;;;;;;;;;;;;;;;;;;5028030;28;19959;-59
2022/06/15 01:36:36;;;;;;;;;;;;;;;;;;5027812;28;20010;-59
2022/06/15 01:39:10;;;;;;;;;;;;;;;;;;5027569;28;19909;-58
2022/06/15 01:41:47;;;;;;;;;;;;;;;;;;5084544;28;19916;-58
2022/06/15 01:44:16;;;;;;;;;;;;;;;;;;5089773;28;19908;-58
2022/06/15 01:46:44;;;;;;;;;;;;;;;;;;5089907;28;19908;-59
2022/06/15 01:49:11;;;;;;;;;;;;;;;;;;5088144;28;19976;-58
2022/06/15 01:51:47;;;;;;;;;;;;;;;;;;5089398;28;19939;-58
2022/06/15 01:54:16;;;;;;;;;;;;;;;;;;5090049;28;19908;-59
2022/06/15 01:56:42;;;;;;;;;;;;;;;;;;5066867;28;19909;-59
2022/06/15 01:59:24;;;;;;;;;;;;;;;;;;5066258;28;19921;-59
2022/06/15 02:01:58;;;;;;;;;;;;;;;;;;5067173;28;19963;-59
2022/06/15 02:07:22;;;;;;;;;;;;;;;;;;4997628;28;19911;-59
2022/06/15 02:09:50;;;;;;;;;;;;;;;;;;5067700;28;19917;-60
2022/06/15 02:12:32;;;;;;;;;;;;;;;;;;5046315;28;19908;-59
2022/06/15 02:15:06;;;;;;;;;;;;;;;;;;5065112;28;19909;-58
2022/06/15 02:17:41;;;;;;;;;;;;;;;;;;5067187;28;19912;-59
2022/06/15 02:20:21;;;;;;;;;;;;;;;;;;5067085;28;20465;-58
2022/06/15 02:22:59;;;;;;;;;;;;;;;;;;5067360;28;20366;-58
2022/06/15 02:25:29;;;;;;;;;;;;;;;;;;5067619;28;20393;-59
2022/06/15 02:27:55;;;;;;;;;;;;;;;;;;5079875;28;19912;-58
2022/06/15 02:30:21;;;;;;;;;;;;;;;;;;5088988;28;19928;-58
2022/06/15 02:32:47;;;;;;;;;;;;;;;;;;5088559;28;19909;-58
2022/06/15 02:35:14;;;;;;;;;;;;;;;;;;5088942;28;20262;-58
2022/06/15 02:37:41;;;;;;;;;;;;;;;;;;5086856;28;19908;-58
2022/06/15 02:42:56;;;;;;;;;;;;;;;;;;5088446;28;19918;-58
2022/06/15 02:45:35;;;;;;;;;;;;;;;;;;5088757;28;19908;-59
2022/06/15 02:48:01;;;;;;;;;;;;;;;;;;5088177;28;20258;-58
2022/06/15 02:50:45;;;;;;;;;;;;;;;;;;5087606;28;20406;-58
2022/06/15 02:53:18;;;;;;;;;;;;;;;;;;5088888;28;20003;-58
2022/06/15 02:55:47;;;;;;;;;;;;;;;;;;5088129;28;19908;-59
2022/06/15 02:58:13;;;;;;;;;;;;;;;;;;5089778;28;20349;-59
2022/06/15 03:00:39;;;;;;;;;;;;;;;;;;5108478;28;19947;-58
2022/06/15 03:03:08;;;;;;;;;;;;;;;;;;5108721;28;19971;-58
2022/06/15 03:05:37;;;;;;;;;;;;;;;;;;5107970;28;20333;-58
2022/06/15 03:11:01;;;;;;;;;;;;;;;;;;5006525;28;20391;-58
2022/06/15 03:13:45;;;;;;;;;;;;;;;;;;5102209;28;19908;-58
2022/06/15 03:16:12;;;;;;;;;;;;;;;;;;5108158;28;19942;-58
2022/06/15 03:18:44;;;;;;;;;;;;;;;;;;5089704;28;19920;-58
2022/06/15 03:21:10;;;;;;;;;;;;;;;;;;5107914;28;19908;-58
2022/06/15 03:23:42;;;;;;;;;;;;;;;;;;5108468;28;20259;-58
2022/06/15 03:26:30;;;;;;;;;;;;;;;;;;5109994;28;19940;-58
2022/06/15 03:29:05;;;;;;;;;;;;;;;;;;5112481;28;19967;-59
2022/06/15 03:31:34;;;;;;;;;;;;;;;;;;5103407;28;20358;-57
2022/06/15 03:34:08;;;;;;;;;;;;;;;;;;5080791;28;19966;-58
2022/06/15 03:36:36;;;;;;;;;;;;;;;;;;5098858;28;19908;-59
2022/06/15 03:39:05;;;;;;;;;;;;;;;;;;5099017;28;20002;-58
2022/06/15 03:47:20;;;;;;;;;;;;;;;;;;;;;
2022/06/15 03:49:48;;;;;;;;;;;;;;;;;;5098760;28;20293;-58
2022/06/15 03:52:31;;;;;;;;;;;;;;;;;;5056840;28;19916;-58
2022/06/15 03:54:58;;;;;;;;;;;;;;;;;;5039335;28;19932;-58
2022/06/15 03:57:42;;;;;;;;;;;;;;;;;;5057680;28;19916;-58
2022/06/15 04:00:15;;;;;;;;;;;;;;;;;;5028624;28;20431;-58
2022/06/15 04:02:48;;;;;;;;;;;;;;;;;;5033487;28;20571;-58
2022/06/15 04:05:32;;;;;;;;;;;;;;;;;;5035803;28;19932;-58
2022/06/15 04:10:43;;;;;;;;;;;;;;;;;;5035372;28;19924;-58
2022/06/15 04:16:17;;;;;;;;;;;;;;;;;;;;;
2022/06/15 04:18:46;;;;;;;;;;;;;;;;;;4995788;28;20392;-58
2022/06/15 04:21:12;;;;;;;;;;;;;;;;;;4980409;28;20440;-57
2022/06/15 04:23:47;;;;;;;;;;;;;;;;;;5005747;28;19952;-58
2022/06/15 04:29:05;;;;;;;;;;;;;;;;;;5077455;28;20420;-58
2022/06/15 04:31:40;;;;;;;;;;;;;;;;;;5057958;28;19963;-58
2022/06/15 04:36:58;;;;;;;;;;;;;;;;;;5078223;28;20009;-58
2022/06/15 04:39:24;;;;;;;;;;;;;;;;;;5077308;28;19931;-58
2022/06/15 04:42:08;;;;;;;;;;;;;;;;;;5058965;28;20368;-58
2022/06/15 04:47:26;;;;;;;;;;;;;;;;;;5073829;28;19915;-58
2022/06/15 04:49:55;;;;;;;;;;;;;;;;;;5077422;28;19916;-58
2022/06/15 04:58:15;;;;;;;;;;;;;;;;;;4957290;29;19942;-58
2022/06/15 05:00:42;;;;;;;;;;;;;;;;;;4975271;28;20367;-58
2022/06/15 05:03:18;;;;;;;;;;;;;;;;;;5002544;28;19909;-59
2022/06/15 05:05:44;;;;;;;;;;;;;;;;;;5054195;28;19909;-58
2022/06/15 05:08:13;;;;;;;;;;;;;;;;;;5055110;28;19909;-58
2022/06/15 05:10:44;;;;;;;;;;;;;;;;;;5054435;28;19917;-58
2022/06/15 05:13:19;;;;;;;;;;;;;;;;;;5054940;28;19936;-58
2022/06/15 05:15:46;;;;;;;;;;;;;;;;;;5054265;28;19909;-58
2022/06/15 05:20:59;;;;;;;;;;;;;;;;;;5054682;28;19908;-58
2022/06/15 05:29:06;;;;;;;;;;;;;;;;;;5096773;28;19931;-59
2022/06/15 05:31:33;;;;;;;;;;;;;;;;;;5096511;28;19986;-59
2022/06/15 05:33:59;;;;;;;;;;;;;;;;;;5096851;28;19911;-58
2022/06/15 05:36:40;;;;;;;;;;;;;;;;;;5073674;28;19908;-58
2022/06/15 05:39:21;;;;;;;;;;;;;;;;;;5096921;28;19908;-58
2022/06/15 05:41:51;;;;;;;;;;;;;;;;;;5079591;28;20395;-58
2022/06/15 05:47:11;;;;;;;;;;;;;;;;;;5096731;28;20277;-58
2022/06/15 05:49:52;;;;;;;;;;;;;;;;;;5095732;28;19915;-57
2022/06/15 05:52:28;;;;;;;;;;;;;;;;;;5096468;28;19995;-58
2022/06/15 05:55:06;;;;;;;;;;;;;;;;;;5097020;28;19934;-58
2022/06/15 05:57:54;;;;;;;;;;;;;;;;;;;;;
2022/06/15 06:00:22;;;;;;;;;;;;;;;;;;5092730;28;20441;-59
2022/06/15 06:02:58;;;;;;;;;;;;;;;;;;5096496;28;19934;-59
2022/06/15 06:05:26;;;;;;;;;;;;;;;;;;5095798;28;20361;-59
2022/06/15 06:07:56;;;;;;;;;;;;;;;;;;5095584;28;19908;-59
2022/06/15 06:19:17;;;;;;;;;;;;;;;;;;5090054;28;20003;-58
2022/06/15 06:21:49;;;;;;;;;;;;;;;;;;5095527;28;19905;-58
2022/06/15 06:24:18;;;;;;;;;;;;;;;;;;5096197;28;20274;-59
2022/06/15 06:26:45;;;;;;;;;;;;;;;;;;5059368;28;20261;-57
2022/06/15 06:29:11;;;;;;;;;;;;;;;;;;5095210;28;19912;-58
2022/06/15 06:31:42;;;;;;;;;;;;;;;;;;5095308;28;19916;-59
2022/06/15 06:34:14;;;;;;;;;;;;;;;;;;5096127;28;19908;-58
2022/06/15 06:36:43;;;;;;;;;;;;;;;;;;5094902;28;19912;-58
2022/06/15 06:39:13;;;;;;;;;;;;;;;;;;5095010;28;20273;-59
2022/06/15 06:41:42;;;;;;;;;;;;;;;;;;5095191;28;19915;-59
2022/06/15 06:49:44;;;;;;;;;;;;;;;;;;5047084;28;19999;-58
2022/06/15 06:52:10;;;;;;;;;;;;;;;;;;5076499;28;20016;-59
2022/06/15 06:57:28;;;;;;;;;;;;;;;;;;5089973;28;19908;-59
2022/06/15 07:00:04;;;;;;;;;;;;;;;;;;5072260;28;19978;-59
2022/06/15 07:02:36;;;;;;;;;;;;;;;;;;5071413;28;20508;-58
2022/06/15 07:05:06;;;;;;;;;;;;;;;;;;5074597;28;20342;-58
2022/06/15 07:07:42;;;;;;;;;;;;;;;;;;;;;
2022/06/15 07:10:25;;;;;;;;;;;;;;;;;;5075167;28;19916;-58
2022/06/15 07:13:05;;;;;;;;;;;;;;;;;;5074181;28;20010;-59
2022/06/15 07:15:42;;;;;;;;;;;;;;;;;;5075251;28;19912;-59
2022/06/15 07:18:11;;;;;;;;;;;;;;;;;;5074458;28;19908;-59
2022/06/15 07:20:52;;;;;;;;;;;;;;;;;;5074579;28;19909;-59
2022/06/15 07:23:25;;;;;;;;;;;;;;;;;;5075511;28;19909;-59
2022/06/15 07:25:54;;;;;;;;;;;;;;;;;;5074309;28;19913;-59
2022/06/15 07:37:03;;;;;;;;;;;;;;;;;;;;;
2022/06/15 07:39:44;;;;;;;;;;;;;;;;;;5074592;28;20345;-58
2022/06/15 07:42:18;;;;;;;;;;;;;;;;;;5074673;28;19908;-59
2022/06/15 07:44:55;;;;;;;;;;;;;;;;;;5074283;28;19944;-59
2022/06/15 07:50:05;;;;;;;;;;;;;;;;;;5074558;28;20330;-59
2022/06/15 07:52:37;;;;;;;;;;;;;;;;;;5071494;28;19948;-59
2022/06/15 07:57:53;;;;;;;;;;;;;;;;;;5073627;28;19915;-59
2022/06/15 08:00:29;;;;;;;;;;;;;;;;;;;;;
2022/06/15 08:02:55;;;;;;;;;;;;;;;;;;5094965;28;19987;-59
2022/06/15 08:05:39;;;;;;;;;;;;;;;;;;5094438;28;19908;-59
2022/06/15 08:08:11;;;;;;;;;;;;;;;;;;5076326;28;19954;-59
2022/06/15 08:10:49;;;;;;;;;;;;;;;;;;5070997;28;19948;-59
2022/06/15 08:13:15;;;;;;;;;;;;;;;;;;5079418;28;20368;-59
2022/06/15 08:15:44;;;;;;;;;;;;;;;;;;5098347;28;20276;-59
2022/06/15 08:18:10;;;;;;;;;;;;;;;;;;5099272;28;19915;-61
2022/06/15 08:20:46;;;;;;;;;;;;;;;;;;5077783;28;19912;-60
2022/06/15 08:23:22;;;;;;;;;;;;;;;;;;;;;
2022/06/15 08:26:07;;;;;;;;;;;;;;;;;;5098721;28;20006;-60
2022/06/15 08:28:54;;;;;;;;;;;;;;;;;;5063327;28;20302;-60
2022/06/15 08:34:08;;;;;;;;;;;;;;;;;;5097208;28;19954;-60
2022/06/15 08:36:38;;;;;;;;;;;;;;;;;;5077357;28;20433;-60
2022/06/15 08:39:06;;;;;;;;;;;;;;;;;;5097366;28;19908;-60
2022/06/15 08:41:50;;;;;;;;;;;;;;;;;;5097445;28;20355;-59
2022/06/15 08:44:26;;;;;;;;;;;;;;;;;;5078849;28;19915;-60
2022/06/15 08:47:10;;;;;;;;;;;;;;;;;;5097298;28;19912;-60
2022/06/15 08:49:50;;;;;;;;;;;;;;;;;;5096804;28;20358;-60
2022/06/15 08:52:16;;;;;;;;;;;;;;;;;;5076933;28;19908;-60
2022/06/15 08:54:58;;;;;;;;;;;;;;;;;;5077769;28;19985;-60
2022/06/15 09:00:27;;;;;;;;;;;;;;;;;;5074135;28;19920;-60
2022/06/15 09:03:22;;;;;;;;;;;;;;;;;;5079650;28;19908;-60
2022/06/15 09:05:58;;;;;;;;;;;;;;;;;;5091532;28;19915;-60
2022/06/15 09:11:37;;;;;;;;;;;;;;;;;;5040927;28;19916;-60
2022/06/15 09:17:16;;;;;;;;;;;;;;;;;;4994785;28;19910;-60
2022/06/15 09:19:55;;;;;;;;;;;;;;;;;;;;;
2022/06/15 09:22:27;;;;;;;;;;;;;;;;;;4994949;28;20376;-60
2022/06/15 09:25:02;;;;;;;;;;;;;;;;;;4977547;28;19941;-60
2022/06/15 09:27:46;;;;;;;;;;;;;;;;;;5073465;28;20006;-60
2022/06/15 09:30:41;;;;;;;;;;;;;;;;;;;;;
2022/06/15 09:38:41;;;;;;;;;;;;;;;;;;5096539;28;19915;-60
2022/06/15 09:41:26;;;;;;;;;;;;;;;;;;5077671;28;19989;-60
2022/06/15 09:43:52;;;;;;;;;;;;;;;;;;5096165;28;19951;-60
2022/06/15 09:46:24;;;;;;;;;;;;;;;;;;5095953;28;19908;-60
2022/06/15 09:48:50;;;;;;;;;;;;;;;;;;5093884;28;20361;-60
2022/06/15 09:51:22;;;;;;;;;;;;;;;;;;5095897;28;19923;-61
2022/06/15 09:54:06;;;;;;;;;;;;;;;;;;5096926;28;19908;-60
2022/06/15 09:56:32;;;;;;;;;;;;;;;;;;5096063;28;20011;-60
2022/06/15 09:59:05;;;;;;;;;;;;;;;;;;5095978;28;19971;-58
2022/06/15 10:01:44;;;;;;;;;;;;;;;;;;5095990;28;19931;-59
2022/06/15 10:04:11;;;;;;;;;;;;;;;;;;5096894;28;20387;-59
2022/06/15 10:06:57;;;;;;;;;;;;;;;;;;5095660;28;19930;-59
2022/06/15 10:14:55;;;;;;;;;;;;;;;;;;5095941;28;20024;-59
2022/06/15 10:17:31;;;;;;;;;;;;;;;;;;5095979;28;20277;-59
2022/06/15 10:20:06;;;;;;;;;;;;;;;;;;5078198;28;19986;-59
2022/06/15 10:22:32;;;;;;;;;;;;;;;;;;5095806;28;19931;-59
2022/06/15 10:27:48;;;;;;;;;;;;;;;;;;5096069;28;20369;-59
2022/06/15 10:30:18;;;;;;;;;;;;;;;;;;5068145;28;19916;-59
2022/06/15 10:35:36;;;;;;;;;;;;;;;;;;5090391;28;19908;-59
2022/06/15 10:38:09;;;;;;;;;;;;;;;;;;5095729;28;19912;-59
2022/06/15 10:40:55;;;;;;;;;;;;;;;;;;5095994;28;19908;-59
2022/06/15 10:43:23;;;;;;;;;;;;;;;;;;5081127;28;19912;-59
2022/06/15 10:45:59;;;;;;;;;;;;;;;;;;5094812;28;20334;-59
2022/06/15 10:48:43;;;;;;;;;;;;;;;;;;5095270;28;20419;-60
2022/06/15 10:51:14;;;;;;;;;;;;;;;;;;5075240;28;19922;-60
2022/06/15 10:53:58;;;;;;;;;;;;;;;;;;5095623;28;19908;-60
2022/06/15 11:02:16;;;;;;;;;;;;;;;;;;5094028;28;19967;-59
2022/06/15 11:04:51;;;;;;;;;;;;;;;;;;5076362;28;19912;-60
2022/06/15 11:10:24;;;;;;;;;;;;;;;;;;4992584;28;20381;-59
2022/06/15 11:18:42;;;;;;;;;;;;;;;;;;4992803;28;19993;-59
2022/06/15 11:21:24;;;;;;;;;;;;;;;;;;5037279;28;19958;-60
2022/06/15 11:23:59;;;;;;;;;;;;;;;;;;5094091;28;20254;-59
2022/06/15 11:31:57;;;;;;;;;;;;;;;;;;5094472;28;19959;-59
2022/06/15 11:34:29;;;;;;;;;;;;;;;;;;5072835;28;19908;-59
2022/06/15 11:36:57;;;;;;;;;;;;;;;;;;5094165;28;19908;-59
2022/06/15 11:39:26;;;;;;;;;;;;;;;;;;5094109;28;19912;-60
2022/06/15 11:41:56;;;;;;;;;;;;;;;;;;5094521;28;19908;-60
2022/06/15 11:44:24;;;;;;;;;;;;;;;;;;5072771;28;20424;-60
2022/06/15 11:46:56;;;;;;;;;;;;;;;;;;5095336;28;19914;-60
2022/06/15 11:49:25;;;;;;;;;;;;;;;;;;5080154;28;20311;-59
2022/06/15 11:51:54;;;;;;;;;;;;;;;;;;5077803;28;19916;-60
2022/06/15 11:54:23;;;;;;;;;;;;;;;;;;5097900;28;19912;-60
2022/06/15 11:56:52;;;;;;;;;;;;;;;;;;5096791;28;20394;-60
2022/06/15 12:02:07;;;;;;;;;;;;;;;;;;5079787;28;20009;-59
2022/06/15 12:04:39;;;;;;;;;;;;;;;;;;5096150;28;19912;-59
2022/06/15 12:07:05;;;;;;;;;;;;;;;;;;5079056;28;19909;-59
2022/06/15 12:09:37;;;;;;;;;;;;;;;;;;5098389;28;19912;-59
2022/06/15 12:14:48;;;;;;;;;;;;;;;;;;5097906;28;19915;-59
2022/06/15 12:20:24;;;;;;;;;;;;;;;;;;5097666;28;19908;-59
2022/06/15 12:25:36;;;;;;;;;;;;;;;;;;5080115;28;19908;-59
2022/06/15 12:31:16;;;;;;;;;;;;;;;;;;4995498;28;19921;-59
2022/06/15 12:36:46;;;;;;;;;;;;;;;;;;5059963;28;19912;-60
2022/06/15 12:39:20;;;;;;;;;;;;;;;;;;5095123;28;19915;-60
2022/06/15 12:44:34;;;;;;;;;;;;;;;;;;5097342;28;20392;-59
2022/06/15 12:47:10;;;;;;;;;;;;;;;;;;5097750;28;20358;-59
2022/06/15 12:49:36;;;;;;;;;;;;;;;;;;5078257;28;20258;-60
2022/06/15 12:52:02;;;;;;;;;;;;;;;;;;5096646;28;20345;-59
2022/06/15 12:57:14;;;;;;;;;;;;;;;;;;5044421;28;19909;-60
2022/06/15 13:02:25;;;;;;;;;;;;;;;;;;5096143;28;20034;-60
2022/06/15 13:04:53;;;;;;;;;;;;;;;;;;5096532;28;19948;-60
2022/06/15 13:07:27;;;;;;;;;;;;;;;;;;5096931;28;19914;-60
2022/06/15 13:10:04;;;;;;;;;;;;;;;;;;;;;
2022/06/15 13:12:38;;;;;;;;;;;;;;;;;;5096571;28;19934;-60
2022/06/15 13:15:15;;;;;;;;;;;;;;;;;;;;;
2022/06/15 13:20:27;;;;;;;;;;;;;;;;;;5096243;28;19970;-60
2022/06/15 13:23:06;;;;;;;;;;;;;;;;;;;;;
2022/06/15 13:25:53;;;;;;;;;;;;;;;;;;5093414;28;19919;-60
2022/06/15 13:31:10;;;;;;;;;;;;;;;;;;5096242;28;19934;-60
2022/06/15 13:33:42;;;;;;;;;;;;;;;;;;5075774;28;19908;-60
2022/06/15 13:36:17;;;;;;;;;;;;;;;;;;5095914;28;19911;-60
2022/06/15 13:39:14;;;;;;;;;;;;;;;;;;;;;
2022/06/15 13:41:33;;;;;;;;;;;;;;;;;;5089249;28;20258;-60
2022/06/15 13:44:09;;;;;;;;;;;;;;;;;;;;;
2022/06/15 13:46:38;;;;;;;;;;;;;;;;;;5096719;28;19908;-60
2022/06/15 13:49:16;;;;;;;;;;;;;;;;;;5077098;28;19908;-60
2022/06/15 13:54:34;;;;;;;;;;;;;;;;;;5082517;28;19912;-60
2022/06/15 13:57:11;;;;;;;;;;;;;;;;;;5076952;28;19974;-59
2022/06/15 13:59:48;;;;;;;;;;;;;;;;;;5074536;28;20353;-59
2022/06/15 14:02:14;;;;;;;;;;;;;;;;;;5076890;28;19915;-60
2022/06/15 14:04:45;;;;;;;;;;;;;;;;;;5095721;28;20002;-60
2022/06/15 14:07:14;;;;;;;;;;;;;;;;;;5078029;28;19910;-60
2022/06/15 14:09:46;;;;;;;;;;;;;;;;;;5083662;28;19912;-60
2022/06/15 14:12:26;;;;;;;;;;;;;;;;;;5094538;28;19916;-60
2022/06/15 14:14:57;;;;;;;;;;;;;;;;;;5095868;28;19955;-60
2022/06/15 14:17:32;;;;;;;;;;;;;;;;;;5096464;28;20002;-60
2022/06/15 14:20:58;;;;;;;;;;;;;;;;;;5096121;28;20261;-59
2022/06/15 14:23:06;;;;;;;;;;;;;;;;;;;;;
2022/06/15 14:25:35;;;;;;;;;;;;;;;;;;5094968;28;20271;-60
2022/06/15 14:28:08;;;;;;;;;;;;;;;;;;5095082;28;20034;-60
2022/06/15 14:30:37;;;;;;;;;;;;;;;;;;5095992;28;19916;-60
2022/06/15 14:33:06;;;;;;;;;;;;;;;;;;5095994;28;19912;-60
2022/06/15 14:35:32;;;;;;;;;;;;;;;;;;5076828;28;19959;-60
2022/06/15 14:38:00;;;;;;;;;;;;;;;;;;5095307;28;20361;-60
2022/06/15 14:40:29;;;;;;;;;;;;;;;;;;5076010;28;19916;-60
2022/06/15 14:42:55;;;;;;;;;;;;;;;;;;5076374;28;19962;-60
2022/06/15 14:45:24;;;;;;;;;;;;;;;;;;5094519;28;19915;-60
2022/06/15 14:50:43;;;;;;;;;;;;;;;;;;5094269;28;20358;-60
2022/06/15 14:53:31;;;;;;;;;;;;;;;;;;;;;
2022/06/15 14:56:01;;;;;;;;;;;;;;;;;;5094573;28;20292;-60
2022/06/15 14:58:32;;;;;;;;;;;;;;;;;;5094010;28;19908;-60
2022/06/15 15:01:01;;;;;;;;;;;;;;;;;;5095264;28;20286;-60
2022/06/15 15:03:27;;;;;;;;;;;;;;;;;;5072410;28;19920;-60
2022/06/15 15:06:11;;;;;;;;;;;;;;;;;;5055521;28;20375;-60
2022/06/15 15:08:43;;;;;;;;;;;;;;;;;;5056099;28;19951;-60
2022/06/15 15:11:30;;;;;;;;;;;;;;;;;;5073532;28;20430;-60
2022/06/15 15:13:58;;;;;;;;;;;;;;;;;;5073864;28;19908;-60
2022/06/15 15:16:31;;;;;;;;;;;;;;;;;;5050686;28;20437;-60
2022/06/15 15:19:00;;;;;;;;;;;;;;;;;;5074042;28;19909;-60
2022/06/15 15:21:30;;;;;;;;;;;;;;;;;;5056121;28;20326;-60
2022/06/15 15:23:56;;;;;;;;;;;;;;;;;;5078961;28;19913;-60
2022/06/15 15:26:33;;;;;;;;;;;;;;;;;;5077928;28;19909;-60
2022/06/15 15:34:38;;;;;;;;;;;;;;;;;;5078340;28;19935;-60
2022/06/15 15:39:49;;;;;;;;;;;;;;;;;;5077978;28;20487;-60
2022/06/15 15:45:13;;;;;;;;;;;;;;;;;;5078570;28;19913;-58
2022/06/15 15:47:40;;;;;;;;;;;;;;;;;;5077728;28;19958;-60
2022/06/15 15:50:16;;;;;;;;;;;;;;;;;;;;;
2022/06/15 15:52:51;;;;;;;;;;;;;;;;;;5074080;28;19913;-60
2022/06/15 15:55:27;;;;;;;;;;;;;;;;;;5058773;28;19912;-60
2022/06/15 15:57:53;;;;;;;;;;;;;;;;;;5078607;28;19915;-60
2022/06/15 16:00:21;;;;;;;;;;;;;;;;;;5059362;28;20344;-60
2022/06/15 16:02:56;;;;;;;;;;;;;;;;;;5059307;28;20366;-60
2022/06/15 16:05:25;;;;;;;;;;;;;;;;;;5058716;28;19909;-60
2022/06/15 16:07:53;;;;;;;;;;;;;;;;;;5077619;28;19912;-60
2022/06/15 16:10:27;;;;;;;;;;;;;;;;;;5059392;28;20373;-60
2022/06/15 16:12:53;;;;;;;;;;;;;;;;;;5076525;28;19912;-60
2022/06/15 16:15:28;;;;;;;;;;;;;;;;;;5077203;28;19915;-60
2022/06/15 16:17:57;;;;;;;;;;;;;;;;;;5077299;28;19909;-60
2022/06/15 16:20:23;;;;;;;;;;;;;;;;;;5077174;28;19915;-60
2022/06/15 16:22:49;;;;;;;;;;;;;;;;;;5077519;28;19958;-60
2022/06/15 16:25:28;;;;;;;;;;;;;;;;;;;;;
2022/06/15 16:28:01;;;;;;;;;;;;;;;;;;5072788;28;19908;-60
2022/06/15 16:30:34;;;;;;;;;;;;;;;;;;5059900;28;20015;-60
2022/06/15 16:33:06;;;;;;;;;;;;;;;;;;5076999;28;19916;-60
2022/06/15 16:38:30;;;;;;;;;;;;;;;;;;5076906;28;19947;-60
2022/06/15 16:41:09;;;;;;;;;;;;;;;;;;5057807;28;19947;-60
2022/06/15 16:43:36;;;;;;;;;;;;;;;;;;5077737;28;20235;-60
2022/06/15 16:46:08;;;;;;;;;;;;;;;;;;5057887;28;19971;-60
2022/06/15 16:48:52;;;;;;;;;;;;;;;;;;5057993;28;20350;-60
2022/06/15 16:51:20;;;;;;;;;;;;;;;;;;5057655;28;19919;-60
2022/06/15 16:53:46;;;;;;;;;;;;;;;;;;5075035;28;19919;-60
2022/06/15 16:56:40;;;;;;;;;;;;;;;;;;;;;
2022/06/15 16:59:23;;;;;;;;;;;;;;;;;;5071839;28;19909;-59
2022/06/15 17:01:52;;;;;;;;;;;;;;;;;;5061241;28;20398;-60
2022/06/15 17:04:20;;;;;;;;;;;;;;;;;;5076478;28;19908;-60
2022/06/15 17:07:07;;;;;;;;;;;;;;;;;;5074683;28;19908;-60
2022/06/15 17:09:35;;;;;;;;;;;;;;;;;;5075249;28;20278;-60
2022/06/15 17:12:04;;;;;;;;;;;;;;;;;;5072132;28;19917;-59
2022/06/15 17:14:33;;;;;;;;;;;;;;;;;;5076157;28;19912;-60
2022/06/15 17:16:59;;;;;;;;;;;;;;;;;;5076169;28;19908;-60
2022/06/15 17:19:30;;;;;;;;;;;;;;;;;;5075109;28;19909;-60
2022/06/15 17:22:04;;;;;;;;;;;;;;;;;;5074739;28;19967;-60
2022/06/15 17:24:30;;;;;;;;;;;;;;;;;;5076158;28;19955;-60
2022/06/15 17:27:09;;;;;;;;;;;;;;;;;;;;;
2022/06/15 17:29:37;;;;;;;;;;;;;;;;;;5068771;28;19915;-60
2022/06/15 17:32:06;;;;;;;;;;;;;;;;;;5075796;28;19966;-60
2022/06/15 17:34:53;;;;;;;;;;;;;;;;;;5075523;28;20011;-59
2022/06/15 17:37:26;;;;;;;;;;;;;;;;;;5075412;28;19915;-60
2022/06/15 17:43:01;;;;;;;;;;;;;;;;;;5076568;28;19947;-60
2022/06/15 17:45:34;;;;;;;;;;;;;;;;;;5075787;28;20258;-59
2022/06/15 17:48:09;;;;;;;;;;;;;;;;;;5075598;28;20359;-60
2022/06/15 17:50:43;;;;;;;;;;;;;;;;;;5076042;28;20308;-60
2022/06/15 17:53:19;;;;;;;;;;;;;;;;;;5073913;28;20236;-60
2022/06/15 17:55:53;;;;;;;;;;;;;;;;;;5073534;28;19909;-60
2022/06/15 17:58:22;;;;;;;;;;;;;;;;;;5071867;28;20002;-60
2022/06/15 18:00:52;;;;;;;;;;;;;;;;;;5072824;28;19960;-60
2022/06/15 18:03:38;;;;;;;;;;;;;;;;;;;;;
2022/06/15 18:06:23;;;;;;;;;;;;;;;;;;5066841;28;20400;-60
2022/06/15 18:09:07;;;;;;;;;;;;;;;;;;5076401;28;19915;-60
2022/06/15 18:11:40;;;;;;;;;;;;;;;;;;5095298;28;19922;-60
2022/06/15 18:14:12;;;;;;;;;;;;;;;;;;5076566;28;19908;-60
2022/06/15 18:16:40;;;;;;;;;;;;;;;;;;5071608;28;19908;-60
2022/06/15 18:19:10;;;;;;;;;;;;;;;;;;5095113;28;20304;-60
2022/06/15 18:21:48;;;;;;;;;;;;;;;;;;5076450;28;19908;-60
2022/06/15 18:24:17;;;;;;;;;;;;;;;;;;5076563;28;19908;-60
2022/06/15 18:26:52;;;;;;;;;;;;;;;;;;5094817;28;19908;-60
2022/06/15 18:29:25;;;;;;;;;;;;;;;;;;5095961;28;19908;-59
2022/06/15 18:31:54;;;;;;;;;;;;;;;;;;5076216;28;20373;-60
2022/06/15 18:34:37;;;;;;;;;;;;;;;;;;5092799;28;20512;-60
2022/06/15 18:37:06;;;;;;;;;;;;;;;;;;5094527;28;20316;-60
2022/06/15 18:39:53;;;;;;;;;;;;;;;;;;5076463;28;19908;-59
2022/06/15 18:42:28;;;;;;;;;;;;;;;;;;5094006;28;19955;-60
2022/06/15 18:47:42;;;;;;;;;;;;;;;;;;5094753;28;20293;-59
2022/06/15 18:50:22;;;;;;;;;;;;;;;;;;;;;
2022/06/15 18:52:54;;;;;;;;;;;;;;;;;;5094659;28;20368;-60
2022/06/15 18:55:23;;;;;;;;;;;;;;;;;;5094528;28;19912;-60
2022/06/15 18:57:59;;;;;;;;;;;;;;;;;;;;;
2022/06/15 19:00:41;;;;;;;;;;;;;;;;;;5094826;28;19914;-59
2022/06/15 19:03:08;;;;;;;;;;;;;;;;;;5076243;28;19970;-60
2022/06/15 19:05:49;;;;;;;;;;;;;;;;;;5075558;28;19915;-59
2022/06/15 19:08:21;;;;;;;;;;;;;;;;;;5076056;28;19914;-59
2022/06/15 19:10:57;;;;;;;;;;;;;;;;;;5075548;28;19916;-60
2022/06/15 19:13:32;;;;;;;;;;;;;;;;;;5076236;28;19962;-59
2022/06/15 19:16:01;;;;;;;;;;;;;;;;;;5094065;28;19908;-60
2022/06/15 19:27:04;;;;;;;;;;;;;;;;;;4992737;28;20423;-60
2022/06/15 19:29:42;;;;;;;;;;;;;;;;;;4992963;28;19909;-60
2022/06/15 19:32:11;;;;;;;;;;;;;;;;;;5082439;28;19915;-60
2022/06/15 19:34:37;;;;;;;;;;;;;;;;;;5093164;28;20319;-60
2022/06/15 19:37:06;;;;;;;;;;;;;;;;;;5092516;28;19912;-59
2022/06/15 19:39:35;;;;;;;;;;;;;;;;;;5094241;28;19908;-59
2022/06/15 19:42:04;;;;;;;;;;;;;;;;;;5094362;28;20369;-60
2022/06/15 19:44:39;;;;;;;;;;;;;;;;;;5094409;28;19947;-60
2022/06/15 19:47:05;;;;;;;;;;;;;;;;;;5076107;28;20384;-59
2022/06/15 19:49:31;;;;;;;;;;;;;;;;;;5093819;28;19913;-59
2022/06/15 19:51:57;;;;;;;;;;;;;;;;;;5094527;28;19963;-59
2022/06/15 19:54:24;;;;;;;;;;;;;;;;;;5094174;28;19919;-59
2022/06/15 19:56:52;;;;;;;;;;;;;;;;;;5091109;28;19999;-59
2022/06/15 19:59:18;;;;;;;;;;;;;;;;;;5070680;28;19908;-59
2022/06/15 20:01:54;;;;;;;;;;;;;;;;;;;;;
2022/06/15 20:04:22;;;;;;;;;;;;;;;;;;5093292;28;19924;-59
2022/06/15 20:07:03;;;;;;;;;;;;;;;;;;5075630;28;20241;-59
2022/06/15 20:09:32;;;;;;;;;;;;;;;;;;5098421;28;19908;-59
2022/06/15 20:11:58;;;;;;;;;;;;;;;;;;5097412;28;19917;-59
2022/06/15 20:14:27;;;;;;;;;;;;;;;;;;5097864;28;19909;-59
2022/06/15 20:20:00;;;;;;;;;;;;;;;;;;5098516;28;19961;-60
2022/06/15 20:22:40;;;;;;;;;;;;;;;;;;5096872;28;20006;-59
2022/06/15 20:25:06;;;;;;;;;;;;;;;;;;5079669;28;19909;-60
2022/06/15 20:27:43;;;;;;;;;;;;;;;;;;;;;
2022/06/15 20:30:09;;;;;;;;;;;;;;;;;;5093859;28;19908;-60
2022/06/15 20:32:35;;;;;;;;;;;;;;;;;;5098625;28;19912;-60
2022/06/15 20:35:23;;;;;;;;;;;;;;;;;;5097762;28;19908;-60
2022/06/15 20:38:09;;;;;;;;;;;;;;;;;;5097672;28;20342;-60
2022/06/15 20:40:46;;;;;;;;;;;;;;;;;;5097184;28;20439;-60
2022/06/15 20:43:17;;;;;;;;;;;;;;;;;;5098156;28;20021;-60
2022/06/15 20:46:03;;;;;;;;;;;;;;;;;;5097495;28;19923;-60
2022/06/15 20:48:35;;;;;;;;;;;;;;;;;;5096747;28;19923;-60
2022/06/15 20:51:10;;;;;;;;;;;;;;;;;;5078529;28;20385;-60
2022/06/15 20:59:10;;;;;;;;;;;;;;;;;;5096578;28;19919;-60
2022/06/15 21:01:42;;;;;;;;;;;;;;;;;;5097864;28;19958;-60
2022/06/15 21:04:09;;;;;;;;;;;;;;;;;;5097841;28;20270;-60
2022/06/15 21:06:44;;;;;;;;;;;;;;;;;;5098104;28;20273;-60
2022/06/15 21:09:10;;;;;;;;;;;;;;;;;;5097209;28;19919;-60
2022/06/15 21:19:56;;;;;;;;;;;;;;;;;;5097205;28;20392;-60
2022/06/15 21:25:23;;;;;;;;;;;;;;;;;;5058805;28;19908;-60
2022/06/15 21:27:50;;;;;;;;;;;;;;;;;;5097533;28;19970;-60
2022/06/15 21:30:22;;;;;;;;;;;;;;;;;;5073548;28;19930;-61
2022/06/15 21:32:51;;;;;;;;;;;;;;;;;;5099155;28;20265;-60
2022/06/15 21:35:20;;;;;;;;;;;;;;;;;;5098486;28;19914;-60
2022/06/15 21:37:49;;;;;;;;;;;;;;;;;;5094313;28;19908;-60